Time;durP1;ratioP1;P1;durP2;ratioP2;P2;SDS_P1;SDS_P2;PMS_P1;PMS_P2;Temp;Humidity;BMP_temperature;BMP_pressure;BME280_temperature;BME280_humidity;BME280_pressure;Samples;Min_cycle;Max_cycle;Signal;HPM_P1;HPM_P2
2023/12/24 01:13:08;;;;;;;;;;;;;;;14.52;80.49;99625.09;7396425;19;19939;-65
2023/12/24 01:15:33;;;;;;;;;;;;;;;14.52;80.82;99615.44;7345784;19;19971;-66
2023/12/24 01:17:58;;;;;;;;;;;;;;;14.53;80.96;99608.38;7357379;19;19923;-66
2023/12/24 01:20:24;;;;;;;;;;;;;;;14.52;80.61;99598.81;7356181;19;19922;-66
2023/12/24 01:22:49;;;;;;;;;;;;;;;14.52;80.54;99619.84;7354277;19;20361;-66
2023/12/24 01:25:14;;;;;;;;;;;;;;;14.52;80.57;99619.84;7360698;19;20372;-66
2023/12/24 01:27:40;;;;;;;;;;;;;;;14.51;80.72;99612.91;7355584;19;20349;-66
2023/12/24 01:30:05;;;;;;;;;;;;;;;14.52;80.48;99619.84;7362575;19;20763;-66
2023/12/24 01:32:31;;;;;;;;;;;;;;;14.52;80.67;99612.78;7354830;19;19937;-66
2023/12/24 01:34:57;;;;;;;;;;;;;;;14.52;80.56;99612.78;7358538;19;19983;-66
2023/12/24 01:37:22;;;;;;;;;;;;;;;14.52;80.57;99609.31;7362017;19;20806;-66
2023/12/24 01:39:47;;;;;;;;;;;;;;;14.52;80.94;99611.94;7364041;19;19919;-66
2023/12/24 01:42:12;;;;;;;;;;;;;;;14.51;80.41;99592.72;7356879;19;19943;-66
2023/12/24 01:44:38;;;;;;;;;;;;;;;14.51;80.44;99594.50;7362176;19;19918;-65
2023/12/24 01:47:03;;;;;;;;;;;;;;;14.50;80.48;99592.81;7362089;19;19922;-65
2023/12/24 01:49:29;;;;;;;;;;;;;;;14.49;80.38;99620.00;7375907;19;19930;-65
2023/12/24 01:51:54;;;;;;;;;;;;;;;14.47;80.32;99585.94;7378475;19;19998;-65
2023/12/24 01:54:20;;;;;;;;;;;;;;;14.44;80.62;99609.72;7379749;19;19932;-65
2023/12/24 01:56:46;;;;;;;;;;;;;;;14.44;80.72;99601.00;7374994;19;20622;-65
2023/12/24 01:59:12;;;;;;;;;;;;;;;14.41;80.58;99607.28;7373907;19;20419;-65
2023/12/24 02:01:37;;;;;;;;;;;;;;;14.41;80.88;99591.50;7381971;19;20706;-65
2023/12/24 02:04:03;;;;;;;;;;;;;;;14.40;80.83;99586.34;7380162;19;19919;-65
2023/12/24 02:06:30;;;;;;;;;;;;;;;14.40;80.55;99578.47;7375381;19;19944;-66
2023/12/24 02:08:55;;;;;;;;;;;;;;;14.39;80.99;99592.53;7370588;19;20361;-66
2023/12/24 02:11:21;;;;;;;;;;;;;;;14.37;80.97;99604.91;7363359;19;19998;-65
2023/12/24 02:13:47;;;;;;;;;;;;;;;14.36;81.01;99588.31;7370556;19;20019;-66
2023/12/24 02:16:15;;;;;;;;;;;;;;;14.36;81.06;99587.47;7361772;19;20656;-65
2023/12/24 02:18:41;;;;;;;;;;;;;;;14.35;80.92;99591.03;7365117;19;20247;-66
2023/12/24 02:21:06;;;;;;;;;;;;;;;14.35;80.83;99601.53;7365522;19;19918;-66
2023/12/24 02:23:31;;;;;;;;;;;;;;;14.33;80.88;99598.13;7371055;19;19929;-65
2023/12/24 02:25:57;;;;;;;;;;;;;;;14.33;81.12;99588.47;7368049;19;19915;-66
2023/12/24 02:28:26;;;;;;;;;;;;;;;14.31;80.93;99573.72;7369146;19;19926;-65
2023/12/24 02:30:54;;;;;;;;;;;;;;;14.32;81.09;99570.16;7364666;19;19961;-65
2023/12/24 02:33:20;;;;;;;;;;;;;;;14.31;81.11;99563.22;7365832;19;19922;-66
2023/12/24 02:35:46;;;;;;;;;;;;;;;14.32;81.29;99575.41;7367964;19;21821;-65
2023/12/24 02:38:11;;;;;;;;;;;;;;;14.32;80.70;99570.16;7365710;19;19930;-66
2023/12/24 02:40:36;;;;;;;;;;;;;;;14.31;80.91;99564.06;7362711;19;19915;-65
2023/12/24 02:43:02;;;;;;;;;;;;;;;14.31;80.75;99564.06;7369837;19;19919;-66
2023/12/24 02:45:27;;;;;;;;;;;;;;;14.34;81.15;99552.53;7361760;19;19994;-66
2023/12/24 02:47:52;;;;;;;;;;;;;;;14.34;81.19;99565.66;7366584;19;19961;-66
2023/12/24 02:50:19;;;;;;;;;;;;;;;14.34;81.21;99542.88;7369478;19;20363;-66
2023/12/24 02:52:44;;;;;;;;;;;;;;;14.34;81.25;99555.16;7366241;19;19964;-66
2023/12/24 02:55:10;;;;;;;;;;;;;;;14.35;81.15;99559.50;7368916;19;20271;-66
2023/12/24 02:57:35;;;;;;;;;;;;;;;14.35;80.79;99554.25;7362904;19;19990;-66
2023/12/24 03:00:00;;;;;;;;;;;;;;;14.35;81.15;99543.75;7365280;19;19942;-65
2023/12/24 03:02:26;;;;;;;;;;;;;;;14.36;80.99;99543.66;7363581;19;19928;-65
2023/12/24 03:04:51;;;;;;;;;;;;;;;14.36;80.97;99535.78;7370203;19;19930;-65
2023/12/24 03:07:16;;;;;;;;;;;;;;;14.36;80.89;99540.19;7368824;19;20461;-65
2023/12/24 03:09:42;;;;;;;;;;;;;;;14.36;81.04;99524.44;7364647;19;19942;-64
2023/12/24 03:12:08;;;;;;;;;;;;;;;14.37;81.10;99526.13;7362217;19;19919;-66
2023/12/24 03:14:33;;;;;;;;;;;;;;;14.37;81.15;99526.97;7360171;19;19923;-65
2023/12/24 03:16:58;;;;;;;;;;;;;;;14.37;80.96;99532.22;7364388;19;19924;-66
2023/12/24 03:19:23;;;;;;;;;;;;;;;14.37;81.02;99531.38;7368154;19;19962;-66
2023/12/24 03:21:49;;;;;;;;;;;;;;;14.37;81.16;99537.47;7360382;19;19928;-66
2023/12/24 03:24:14;;;;;;;;;;;;;;;14.39;81.00;99534.75;7367132;19;20269;-66
2023/12/24 03:26:39;;;;;;;;;;;;;;;14.37;81.17;99537.47;7362672;19;19998;-66
2023/12/24 03:29:05;;;;;;;;;;;;;;;14.39;81.36;99514.56;7368368;19;20382;-66
2023/12/24 03:31:30;;;;;;;;;;;;;;;14.41;81.12;99511.88;7356495;19;19955;-66
2023/12/24 03:33:55;;;;;;;;;;;;;;;14.40;81.03;99511.03;7370563;19;19951;-65
2023/12/24 03:36:21;;;;;;;;;;;;;;;14.41;81.42;99504.84;7367628;19;19911;-66
2023/12/24 03:38:46;;;;;;;;;;;;;;;14.42;80.97;99508.31;7371741;19;20399;-65
2023/12/24 03:41:11;;;;;;;;;;;;;;;14.43;81.18;99505.59;7365859;19;19914;-66
2023/12/24 03:43:36;;;;;;;;;;;;;;;14.44;81.19;99501.19;7364963;19;19922;-66
2023/12/24 03:46:02;;;;;;;;;;;;;;;14.45;80.99;99503.72;7342723;19;20899;-66
2023/12/24 03:48:29;;;;;;;;;;;;;;;14.46;81.20;99499.31;7372100;19;20371;-66
2023/12/24 03:50:54;;;;;;;;;;;;;;;14.47;81.42;99511.50;7360294;19;19915;-65
2023/12/24 03:53:19;;;;;;;;;;;;;;;14.47;81.23;99506.25;7362672;19;19937;-65
2023/12/24 03:55:45;;;;;;;;;;;;;;;14.47;81.12;99511.50;7375466;19;19935;-66
2023/12/24 03:58:10;;;;;;;;;;;;;;;14.47;80.98;99480.00;7365743;19;19907;-66
2023/12/24 04:00:35;;;;;;;;;;;;;;;14.47;80.96;99475.63;7370876;19;19915;-66
2023/12/24 05:14:31;;;;;;;;;;;;;;;14.39;81.09;99401.63;7373774;19;20386;-64
2023/12/24 05:16:57;;;;;;;;;;;;;;;14.38;81.70;99388.59;7366430;19;19923;-64
2023/12/24 05:19:22;;;;;;;;;;;;;;;14.36;81.15;99378.19;7366864;19;19929;-64
2023/12/24 05:21:47;;;;;;;;;;;;;;;14.36;81.21;99374.72;7375294;19;19915;-64
2023/12/24 05:24:12;;;;;;;;;;;;;;;14.35;81.50;99378.31;7369681;19;19931;-64
2023/12/24 05:26:38;;;;;;;;;;;;;;;14.34;81.77;99366.09;7371783;19;19937;-65
2023/12/24 05:29:03;;;;;;;;;;;;;;;14.33;81.30;99369.66;7367340;19;20364;-65
2023/12/24 05:31:28;;;;;;;;;;;;;;;14.32;81.47;99353.06;7372279;19;20229;-65
2023/12/24 05:33:53;;;;;;;;;;;;;;;14.32;81.52;99371.44;7369823;19;19927;-64
2023/12/24 05:36:19;;;;;;;;;;;;;;;14.33;81.73;99372.28;7374525;19;19927;-65
2023/12/24 05:38:44;;;;;;;;;;;;;;;14.33;81.53;99359.16;7367300;19;20255;-64
2023/12/24 05:41:10;;;;;;;;;;;;;;;14.33;81.81;99372.28;7371698;19;19923;-64
2023/12/24 05:43:35;;;;;;;;;;;;;;;14.33;81.69;99361.78;7372343;19;19919;-64
2023/12/24 05:46:01;;;;;;;;;;;;;;;14.32;81.78;99358.31;7371613;19;19923;-64
2023/12/24 05:48:26;;;;;;;;;;;;;;;14.34;82.04;99368.72;7370006;19;19922;-64
2023/12/24 05:50:51;;;;;;;;;;;;;;;14.33;81.72;99372.28;7374165;19;19918;-64
2023/12/24 05:53:17;;;;;;;;;;;;;;;14.33;82.01;99353.91;7370357;19;19941;-64
2023/12/24 05:55:42;;;;;;;;;;;;;;;14.33;81.76;99362.63;7371380;19;19915;-65
2023/12/24 05:58:07;;;;;;;;;;;;;;;14.34;82.25;99337.19;7369317;19;19919;-64
2023/12/24 06:00:32;;;;;;;;;;;;;;;14.33;82.10;99346.84;7370854;19;20003;-64
2023/12/24 06:02:57;;;;;;;;;;;;;;;14.35;81.80;99344.16;7365360;19;19958;-65
2023/12/24 06:05:23;;;;;;;;;;;;;;;14.34;82.18;99321.44;7368806;19;19911;-64
2023/12/24 06:07:48;;;;;;;;;;;;;;;14.35;82.16;99331.03;7368171;19;19931;-64
2023/12/24 06:10:14;;;;;;;;;;;;;;;14.35;81.77;99320.53;7371146;19;20511;-64
2023/12/24 06:12:39;;;;;;;;;;;;;;;14.35;81.90;99315.28;7373125;19;20447;-64
2023/12/24 06:15:05;;;;;;;;;;;;;;;14.36;82.34;99303.81;7374727;19;19937;-64
2023/12/24 06:17:30;;;;;;;;;;;;;;;14.35;81.99;99292.47;7353371;19;19918;-64
2023/12/24 06:19:56;;;;;;;;;;;;;;;14.35;81.98;99307.41;7371815;19;19929;-65
2023/12/24 06:22:21;;;;;;;;;;;;;;;14.36;82.37;99298.56;7365684;19;20278;-64
2023/12/24 06:24:46;;;;;;;;;;;;;;;14.36;82.26;99277.56;7368254;19;19919;-64
2023/12/24 06:27:11;;;;;;;;;;;;;;;14.36;82.19;99282.81;7372609;19;19927;-64
2023/12/24 06:29:37;;;;;;;;;;;;;;;14.36;82.17;99298.56;7373476;19;19911;-64
2023/12/24 06:32:03;;;;;;;;;;;;;;;14.35;82.07;99302.97;7372210;19;20391;-65
2023/12/24 06:34:28;;;;;;;;;;;;;;;14.36;82.32;99288.91;7365472;19;19911;-64
2023/12/24 06:36:53;;;;;;;;;;;;;;;14.36;82.37;99293.31;7367500;19;20737;-65
2023/12/24 06:39:19;;;;;;;;;;;;;;;14.35;81.92;99292.47;7377275;19;19918;-64
2023/12/24 06:41:45;;;;;;;;;;;;;;;14.35;82.02;99291.63;7355005;19;20008;-65
2023/12/24 06:44:11;;;;;;;;;;;;;;;14.36;82.21;99296.78;7372518;19;19914;-64
2023/12/24 06:46:36;;;;;;;;;;;;;;;14.36;81.97;99299.41;7368802;19;19931;-64
2023/12/24 06:49:01;;;;;;;;;;;;;;;14.35;82.42;99291.63;7372234;19;19923;-64
2023/12/24 06:51:26;;;;;;;;;;;;;;;14.36;82.29;99298.56;7371037;19;19945;-64
2023/12/24 06:53:52;;;;;;;;;;;;;;;14.36;82.48;99290.69;7363583;19;20332;-64
2023/12/24 06:56:17;;;;;;;;;;;;;;;14.35;82.39;99297.72;7368323;19;19938;-64
2023/12/24 08:55:30;;;;;;;;;;;;;;;14.22;82.76;99296.78;7346049;19;19947;-65
2023/12/24 08:57:55;;;;;;;;;;;;;;;14.22;82.99;99292.34;7370920;19;19915;-63
2023/12/24 09:00:21;;;;;;;;;;;;;;;14.22;83.04;99287.09;7358081;19;19931;-63
2023/12/24 09:02:46;;;;;;;;;;;;;;;14.22;82.85;99276.59;7376396;19;19942;-64
2023/12/24 09:05:12;;;;;;;;;;;;;;;14.22;82.64;99287.09;7372726;19;20315;-64
2023/12/24 09:07:37;;;;;;;;;;;;;;;14.21;83.06;99274.94;7371959;19;20341;-63
2023/12/24 09:10:03;;;;;;;;;;;;;;;14.22;82.96;99266.09;7371466;19;19927;-64
2023/12/24 09:12:28;;;;;;;;;;;;;;;14.21;82.78;99264.44;7369646;19;19919;-63
2023/12/24 09:14:54;;;;;;;;;;;;;;;14.22;82.64;99265.25;7370724;19;19957;-64
2023/12/24 09:17:19;;;;;;;;;;;;;;;14.21;83.00;99253.91;7373585;19;19919;-64
2023/12/24 09:19:44;;;;;;;;;;;;;;;14.21;82.75;99256.53;7369792;19;19915;-63
2023/12/24 09:22:09;;;;;;;;;;;;;;;14.22;82.75;99252.97;7371648;19;19918;-64
2023/12/24 09:24:35;;;;;;;;;;;;;;;14.22;83.17;99258.22;7369512;19;19922;-62
2023/12/24 09:27:01;;;;;;;;;;;;;;;14.23;83.04;99251.19;7369939;19;20339;-64
2023/12/24 09:29:26;;;;;;;;;;;;;;;14.24;82.76;99277.38;7370736;19;19923;-63
2023/12/24 09:31:51;;;;;;;;;;;;;;;14.23;82.77;99264.31;7368192;19;20342;-64
2023/12/24 09:34:16;;;;;;;;;;;;;;;14.24;83.19;99280.00;7367645;19;20354;-63
2023/12/24 09:36:42;;;;;;;;;;;;;;;14.23;82.69;99262.53;7370988;19;20019;-63
2023/12/24 09:39:07;;;;;;;;;;;;;;;14.25;83.14;99263.31;7372532;19;19918;-63
2023/12/24 09:41:32;;;;;;;;;;;;;;;14.25;82.92;99259.84;7370800;19;20381;-63
2023/12/24 09:43:58;;;;;;;;;;;;;;;14.26;83.23;99270.25;7371049;19;19923;-63
2023/12/24 09:46:23;;;;;;;;;;;;;;;14.26;82.85;99267.63;7374730;19;19919;-62
2023/12/24 09:48:48;;;;;;;;;;;;;;;14.26;83.07;99257.09;7372313;19;19919;-64
2023/12/24 09:51:14;;;;;;;;;;;;;;;14.27;83.23;99269.28;7372586;19;19919;-64
2023/12/24 09:53:44;;;;;;;;;;;;;;;14.30;83.06;99256.94;7372341;19;19926;-63
2023/12/24 09:56:09;;;;;;;;;;;;;;;14.30;83.35;99262.19;7373421;19;19927;-63
2023/12/24 09:58:34;;;;;;;;;;;;;;;14.31;83.22;99250.75;7369405;19;19926;-63
2023/12/24 10:01:00;;;;;;;;;;;;;;;14.32;82.86;99268.19;7366838;19;19919;-63
2023/12/24 10:03:25;;;;;;;;;;;;;;;14.35;83.27;99265.38;7369571;19;19930;-64
2023/12/24 10:06:02;;;;;;;;;;;;;;;14.35;83.40;99278.50;7368948;19;20024;-64
2023/12/24 10:08:27;;;;;;;;;;;;;;;14.35;82.90;99266.22;7372619;19;19943;-63
2023/12/24 10:10:53;;;;;;;;;;;;;;;14.36;82.86;99267.06;7373389;19;20328;-64
2023/12/24 10:13:22;;;;;;;;;;;;;;;14.36;83.22;99246.06;7374510;19;19927;-64
2023/12/24 10:16:00;;;;;;;;;;;;;;;14.37;82.92;99264.34;7378402;19;19926;-62
2023/12/24 10:18:25;;;;;;;;;;;;;;;14.38;83.24;99265.16;7372668;19;19930;-63
2023/12/24 10:20:56;;;;;;;;;;;;;;;14.40;82.81;99276.44;7375787;19;19926;-62
2023/12/24 10:23:22;;;;;;;;;;;;;;;14.40;83.25;99271.19;7376767;19;19926;-63
2023/12/24 10:25:59;;;;;;;;;;;;;;;14.42;82.97;99292.94;7376345;19;20467;-63
2023/12/24 10:28:24;;;;;;;;;;;;;;;14.41;82.73;99296.50;7371296;19;19956;-63
2023/12/24 10:30:50;;;;;;;;;;;;;;;14.41;82.51;99301.75;7375431;19;19922;-63
2023/12/24 10:33:17;;;;;;;;;;;;;;;14.41;82.91;99320.16;7377320;19;19923;-63
2023/12/24 10:35:43;;;;;;;;;;;;;;;14.39;82.41;99309.72;7373556;19;19946;-64
2023/12/24 10:38:15;;;;;;;;;;;;;;;14.39;82.62;99329.88;7375003;19;19919;-63
2023/12/24 10:40:40;;;;;;;;;;;;;;;14.36;82.59;99303.81;7376360;19;19958;-63
2023/12/24 10:43:06;;;;;;;;;;;;;;;14.34;82.36;99326.69;7378814;19;20631;-64
2023/12/24 10:45:31;;;;;;;;;;;;;;;14.31;82.20;99325.09;7376924;19;19942;-63
2023/12/24 10:47:56;;;;;;;;;;;;;;;14.28;82.33;99336.63;7378008;19;19923;-64
2023/12/24 10:50:22;;;;;;;;;;;;;;;14.27;81.97;99327.06;7377649;19;19927;-63
2023/12/24 10:52:47;;;;;;;;;;;;;;;14.25;82.11;99321.06;7378381;19;19918;-63
2023/12/24 10:55:12;;;;;;;;;;;;;;;14.25;82.06;99344.69;7371783;19;19923;-64
2023/12/24 10:57:43;;;;;;;;;;;;;;;14.24;82.38;99348.28;7375660;19;20339;-62
2023/12/24 11:00:12;;;;;;;;;;;;;;;14.23;82.40;99357.06;7360245;19;19918;-63
2023/12/24 11:02:42;;;;;;;;;;;;;;;14.24;82.64;99374.53;7372545;19;19998;-63
2023/12/24 11:05:07;;;;;;;;;;;;;;;14.26;82.60;99346.38;7376239;19;19935;-64
2023/12/24 11:07:33;;;;;;;;;;;;;;;14.28;82.64;99373.38;7374406;19;19938;-63
2023/12/24 11:09:59;;;;;;;;;;;;;;;14.27;82.23;99348.06;7372446;19;19914;-62
2023/12/24 11:12:34;;;;;;;;;;;;;;;14.27;82.42;99395.34;7376477;19;20276;-64
2023/12/24 11:15:00;;;;;;;;;;;;;;;14.25;82.42;99384.09;7374643;19;20309;-64
2023/12/24 11:17:37;;;;;;;;;;;;;;;14.25;82.38;99376.22;7376590;19;19929;-64
2023/12/24 11:20:21;;;;;;;;;;;;;;;14.25;82.13;99362.25;7375565;19;19943;-63
2023/12/24 11:23:07;;;;;;;;;;;;;;;14.24;82.21;99373.66;7374327;19;20005;-64
2023/12/24 11:25:38;;;;;;;;;;;;;;;14.22;82.22;99350.13;7371150;19;19922;-62
2023/12/24 11:28:04;;;;;;;;;;;;;;;14.21;81.69;99353.69;7368279;19;19927;-63
2023/12/24 11:30:29;;;;;;;;;;;;;;;14.20;81.98;99340.66;7375513;19;19922;-64
2023/12/24 11:32:55;;;;;;;;;;;;;;;14.19;81.82;99370.44;7369185;19;19915;-64
2023/12/24 11:35:38;;;;;;;;;;;;;;;14.18;81.51;99345.13;7378859;19;19919;-64
2023/12/24 11:38:22;;;;;;;;;;;;;;;14.15;81.38;99348.81;7374539;19;19926;-64
2023/12/24 11:40:48;;;;;;;;;;;;;;;14.13;81.24;99323.56;7375227;19;19915;-64
2023/12/24 11:43:17;;;;;;;;;;;;;;;14.09;81.00;99291.44;7379052;19;19919;-64
2023/12/24 11:45:42;;;;;;;;;;;;;;;14.04;80.63;99345.97;7375099;19;20706;-64
2023/12/24 11:48:08;;;;;;;;;;;;;;;14.00;80.93;99340.06;7379325;19;19915;-64
2023/12/24 11:50:34;;;;;;;;;;;;;;;13.97;80.86;99349.88;7377273;19;19926;-64
2023/12/24 11:52:59;;;;;;;;;;;;;;;13.93;80.92;99345.72;7378193;19;19967;-64
2023/12/24 11:55:26;;;;;;;;;;;;;;;13.89;80.60;99345.09;7378114;19;19922;-64
2023/12/24 11:57:51;;;;;;;;;;;;;;;13.88;80.61;99350.41;7368383;19;20926;-67
2023/12/24 12:00:24;;;;;;;;;;;;;;;13.86;80.78;99336.53;7339261;19;19939;-65
2023/12/24 12:02:57;;;;;;;;;;;;;;;13.84;80.89;99356.75;7370006;19;19915;-64
2023/12/24 12:05:23;;;;;;;;;;;;;;;13.75;81.00;99324.88;7372820;19;19927;-64
2023/12/24 12:07:49;;;;;;;;;;;;;;;13.80;80.57;99355.25;7370849;19;19919;-64
2023/12/24 12:10:14;;;;;;;;;;;;;;;13.77;80.81;99357.09;7373111;19;20303;-65
2023/12/24 12:12:40;;;;;;;;;;;;;;;13.75;80.61;99364.25;7357861;19;19919;-67
2023/12/24 12:15:05;;;;;;;;;;;;;;;13.75;80.84;99351.13;7363419;19;19933;-64
2023/12/24 12:35:53;;;;;;;;;;;;;;;13.61;81.55;99361.53;7364541;19;20633;-64
2023/12/24 12:38:19;;;;;;;;;;;;;;;13.62;81.59;99346.66;7362336;19;20009;-64
2023/12/24 12:40:44;;;;;;;;;;;;;;;13.63;81.66;99357.03;7362220;19;20506;-64
2023/12/24 12:43:10;;;;;;;;;;;;;;;13.63;81.26;99404.25;7362220;19;19926;-64
2023/12/24 12:45:35;;;;;;;;;;;;;;;13.64;81.18;99364.00;7363756;19;19929;-65
2023/12/24 12:48:01;;;;;;;;;;;;;;;13.63;81.09;99367.53;7366425;19;19923;-64
2023/12/24 12:50:26;;;;;;;;;;;;;;;13.63;81.00;99372.78;7358603;19;19939;-63
2023/12/24 12:52:53;;;;;;;;;;;;;;;13.64;80.94;99392.03;7360870;19;19919;-64
2023/12/24 12:55:19;;;;;;;;;;;;;;;13.62;81.03;99376.34;7364036;19;19918;-66
2023/12/24 12:57:44;;;;;;;;;;;;;;;13.61;81.01;99358.94;7360866;19;19943;-66
2023/12/24 13:00:11;;;;;;;;;;;;;;;13.59;80.87;99387.03;7365880;19;19926;-66
2023/12/24 13:02:36;;;;;;;;;;;;;;;13.59;80.72;99380.94;7367009;19;19918;-66
2023/12/24 13:05:03;;;;;;;;;;;;;;;13.57;81.13;99399.38;7359760;19;20615;-66
2023/12/24 13:07:28;;;;;;;;;;;;;;;13.56;80.73;99386.34;7360500;19;19911;-66
2023/12/24 13:09:54;;;;;;;;;;;;;;;13.54;81.03;99373.31;7365391;19;19936;-66
2023/12/24 13:12:20;;;;;;;;;;;;;;;13.55;81.44;99368.94;7359011;19;21738;-66
2023/12/24 13:14:58;;;;;;;;;;;;;;;13.54;81.42;99362.84;7369626;19;19927;-67
2023/12/24 13:17:23;;;;;;;;;;;;;;;13.54;81.35;99367.25;7362360;19;19922;-66
2023/12/24 13:19:55;;;;;;;;;;;;;;;13.55;81.56;99369.78;7362397;19;20361;-66
2023/12/24 13:22:22;;;;;;;;;;;;;;;13.54;80.64;99362.84;7363238;19;19927;-66
2023/12/24 13:24:48;;;;;;;;;;;;;;;13.52;80.74;99332.38;7360605;19;20489;-66
2023/12/24 13:27:17;;;;;;;;;;;;;;;13.48;80.56;99344.78;7363145;19;19935;-66
2023/12/24 13:29:42;;;;;;;;;;;;;;;13.43;80.41;99376.56;7365296;19;19947;-66
2023/12/24 13:32:07;;;;;;;;;;;;;;;13.35;80.09;99325.47;7365742;19;20271;-66
2023/12/24 13:34:33;;;;;;;;;;;;;;;13.35;80.27;99351.69;7362417;19;19922;-66
2023/12/24 13:36:58;;;;;;;;;;;;;;;13.31;80.37;99355.41;7361717;19;19919;-66
2023/12/24 13:39:23;;;;;;;;;;;;;;;13.27;80.45;99332.91;7357491;19;19918;-66
2023/12/24 13:41:49;;;;;;;;;;;;;;;13.25;80.49;99340.84;7360536;19;19921;-66
2023/12/24 13:44:14;;;;;;;;;;;;;;;13.24;80.78;99362.75;7366933;19;20347;-66
2023/12/24 13:46:40;;;;;;;;;;;;;;;13.22;80.79;99347.09;7371595;19;19990;-66
2023/12/24 13:49:07;;;;;;;;;;;;;;;13.21;80.66;99344.53;7367177;19;19919;-66
2023/12/24 13:51:33;;;;;;;;;;;;;;;13.02;80.78;99323.72;7366652;19;19930;-66
2023/12/24 13:53:58;;;;;;;;;;;;;;;13.16;80.90;99367.53;7369098;19;19923;-66
2023/12/24 13:56:23;;;;;;;;;;;;;;;13.14;81.25;99351.91;7361024;19;19930;-66
2023/12/24 13:58:48;;;;;;;;;;;;;;;13.14;81.00;99365.00;7366407;19;20355;-65
2023/12/24 14:01:14;;;;;;;;;;;;;;;13.16;81.38;99370.16;7369892;19;20328;-66
2023/12/24 14:03:40;;;;;;;;;;;;;;;13.17;81.70;99372.69;7360545;19;20236;-66
2023/12/24 14:06:06;;;;;;;;;;;;;;;13.22;81.87;99382.94;7367302;19;19929;-66
2023/12/24 14:08:31;;;;;;;;;;;;;;;13.23;82.04;99376.81;7368574;19;19915;-66
2023/12/24 14:10:56;;;;;;;;;;;;;;;13.26;81.56;99370.53;7364898;19;19929;-66
2023/12/24 14:13:22;;;;;;;;;;;;;;;13.27;81.57;99366.97;7370326;19;19934;-66
2023/12/24 14:15:47;;;;;;;;;;;;;;;13.29;81.75;99378.25;7371073;19;19943;-66
2023/12/24 14:18:12;;;;;;;;;;;;;;;13.29;81.47;99389.56;7366127;19;19911;-65
2023/12/24 14:20:38;;;;;;;;;;;;;;;13.32;81.78;99351.84;7370091;19;20352;-65
2023/12/24 14:23:03;;;;;;;;;;;;;;;13.33;81.50;99358.75;7369755;19;20252;-65
2023/12/24 14:25:28;;;;;;;;;;;;;;;13.34;81.69;99365.72;7367290;19;19919;-66
2023/12/24 14:27:54;;;;;;;;;;;;;;;13.34;81.17;99360.47;7364557;19;19918;-66
2023/12/24 14:30:19;;;;;;;;;;;;;;;13.33;81.11;99374.50;7369754;19;19937;-66
2023/12/24 14:32:44;;;;;;;;;;;;;;;13.31;81.13;99360.63;7350875;19;19919;-66
2023/12/24 14:35:12;;;;;;;;;;;;;;;13.31;81.00;99368.50;7362709;19;20374;-65
2023/12/24 14:37:37;;;;;;;;;;;;;;;13.29;81.16;99396.59;7363370;19;19922;-66
2023/12/24 14:40:04;;;;;;;;;;;;;;;13.26;81.11;99386.25;7355835;19;19923;-65
2023/12/24 14:42:29;;;;;;;;;;;;;;;13.24;80.85;99388.97;7360984;19;19990;-66
2023/12/24 14:44:55;;;;;;;;;;;;;;;13.22;81.02;99370.69;7362983;19;20008;-65
2023/12/24 14:47:24;;;;;;;;;;;;;;;13.20;80.50;99385.63;7372333;19;20320;-65
2023/12/24 14:49:49;;;;;;;;;;;;;;;13.17;80.49;99385.78;7365561;19;20028;-65
2023/12/24 14:52:15;;;;;;;;;;;;;;;13.16;80.67;99389.34;7364537;19;19943;-65
2023/12/24 14:54:40;;;;;;;;;;;;;;;13.14;80.89;99390.38;7366635;19;19931;-65
2023/12/24 14:57:05;;;;;;;;;;;;;;;13.13;80.70;99397.41;7354846;19;19915;-66
2023/12/24 14:59:30;;;;;;;;;;;;;;;13.11;80.58;99394.00;7365059;19;19930;-65
2023/12/24 15:01:56;;;;;;;;;;;;;;;13.09;80.99;99408.97;7367562;19;19983;-65
2023/12/24 15:04:21;;;;;;;;;;;;;;;13.07;80.97;99420.44;7368002;19;19929;-66
2023/12/24 15:06:46;;;;;;;;;;;;;;;13.06;80.57;99410.91;7353171;19;20418;-66
2023/12/24 15:09:12;;;;;;;;;;;;;;;13.04;80.58;99416.22;7366591;19;21039;-66
2023/12/24 15:11:38;;;;;;;;;;;;;;;13.02;80.32;99423.31;7365411;19;19922;-65
2023/12/24 15:14:03;;;;;;;;;;;;;;;12.99;80.71;99429.56;7359622;19;19946;-66
2023/12/24 15:16:28;;;;;;;;;;;;;;;12.98;80.80;99419.19;7360061;19;19919;-65
2023/12/24 15:18:53;;;;;;;;;;;;;;;12.97;80.39;99423.53;7363203;19;20603;-65
2023/12/24 15:21:19;;;;;;;;;;;;;;;12.96;80.41;99402.69;7363887;19;20074;-65
2023/12/24 15:23:44;;;;;;;;;;;;;;;12.95;80.82;99407.06;7368532;19;20250;-65
2023/12/24 15:26:09;;;;;;;;;;;;;;;12.95;80.58;99411.47;7361117;19;19923;-66
2023/12/24 15:28:35;;;;;;;;;;;;;;;12.94;80.33;99407.16;7360877;19;19975;-66
2023/12/24 15:31:00;;;;;;;;;;;;;;;12.92;80.78;99401.97;7358439;19;19915;-65
2023/12/24 15:33:26;;;;;;;;;;;;;;;12.91;80.54;99395.06;7363566;19;19980;-66
2023/12/24 15:35:52;;;;;;;;;;;;;;;12.89;80.65;99398.69;7363629;19;19923;-67
2023/12/24 15:38:17;;;;;;;;;;;;;;;12.89;80.57;99419.66;7359783;19;19929;-65
2023/12/24 15:40:43;;;;;;;;;;;;;;;12.88;80.34;99420.59;7364592;19;19928;-66
2023/12/24 15:43:08;;;;;;;;;;;;;;;12.86;80.30;99438.16;7366162;19;19925;-65
2023/12/24 15:45:33;;;;;;;;;;;;;;;12.85;80.34;99449.56;7362365;19;19922;-65
2023/12/24 15:47:58;;;;;;;;;;;;;;;12.83;80.40;99438.34;7365672;19;19932;-65
2023/12/24 15:50:24;;;;;;;;;;;;;;;12.82;80.25;99447.09;7360694;19;20453;-65
2023/12/24 15:52:50;;;;;;;;;;;;;;;12.81;80.23;99455.88;7361657;19;19919;-65
2023/12/24 15:55:15;;;;;;;;;;;;;;;12.79;80.16;99458.59;7365603;19;20531;-65
2023/12/24 15:57:40;;;;;;;;;;;;;;;12.78;80.35;99463.91;7362005;19;19919;-66
2023/12/24 16:00:08;;;;;;;;;;;;;;;12.76;80.49;99474.44;7362487;19;19994;-66
2023/12/24 16:02:35;;;;;;;;;;;;;;;12.75;80.16;99449.19;7358006;19;19922;-66
2023/12/24 16:05:00;;;;;;;;;;;;;;;12.73;80.04;99475.47;7363899;19;19974;-65
2023/12/24 16:07:25;;;;;;;;;;;;;;;12.71;80.22;99498.25;7363955;19;20004;-66
2023/12/24 16:09:51;;;;;;;;;;;;;;;12.71;80.57;99508.72;7373419;19;20741;-66
2023/12/24 16:12:17;;;;;;;;;;;;;;;12.72;80.37;99483.38;7368193;19;20661;-65
2023/12/24 16:14:42;;;;;;;;;;;;;;;12.72;80.66;99515.69;7363637;19;19937;-66
2023/12/24 16:17:07;;;;;;;;;;;;;;;12.74;80.72;99523.47;7365346;19;20752;-66
2023/12/24 16:19:33;;;;;;;;;;;;;;;12.75;80.77;99519.06;7360317;19;20346;-65
2023/12/24 16:21:58;;;;;;;;;;;;;;;12.76;80.86;99510.28;7361625;19;19918;-65
2023/12/24 16:24:24;;;;;;;;;;;;;;;12.79;80.51;99504.91;7360326;19;19923;-65
2023/12/24 16:26:50;;;;;;;;;;;;;;;12.81;80.57;99518.75;7351562;19;19914;-65
2023/12/24 16:29:15;;;;;;;;;;;;;;;12.83;80.58;99522.16;7356017;19;19944;-65
2023/12/24 16:31:41;;;;;;;;;;;;;;;12.84;80.53;99523.84;7359681;19;20866;-65
2023/12/24 16:34:07;;;;;;;;;;;;;;;12.84;80.31;99518.59;7359725;19;19919;-65
2023/12/24 16:36:33;;;;;;;;;;;;;;;12.85;80.35;99528.16;7353769;19;19937;-66
2023/12/24 16:38:59;;;;;;;;;;;;;;;12.84;80.40;99523.84;7361382;19;20623;-65
2023/12/24 16:41:24;;;;;;;;;;;;;;;12.85;80.09;99533.41;7360032;19;19926;-66
2023/12/24 16:43:49;;;;;;;;;;;;;;;12.85;80.59;99542.09;7351773;19;20288;-65
2023/12/24 16:46:15;;;;;;;;;;;;;;;12.85;80.29;99557.81;7357013;19;19918;-65
2023/12/24 16:48:40;;;;;;;;;;;;;;;12.84;80.57;99557.91;7344784;19;20307;-65
2023/12/24 16:51:05;;;;;;;;;;;;;;;12.84;80.48;99552.66;7361241;19;19918;-65
2023/12/24 16:53:30;;;;;;;;;;;;;;;12.84;80.54;99539.56;7368047;19;19923;-65
2023/12/24 16:56:02;;;;;;;;;;;;;;;12.84;80.19;99552.66;7364031;19;19926;-65
2023/12/24 16:58:27;;;;;;;;;;;;;;;12.83;80.40;99554.44;7360202;19;19927;-66
2023/12/24 17:00:52;;;;;;;;;;;;;;;12.84;79.98;99552.66;7360241;19;20347;-66
2023/12/24 17:03:17;;;;;;;;;;;;;;;12.81;80.34;99550.19;7365186;19;19994;-66
2023/12/24 17:05:43;;;;;;;;;;;;;;;12.78;79.93;99545.97;7361925;19;19923;-65
2023/12/24 17:08:08;;;;;;;;;;;;;;;12.59;79.85;99530.31;7362408;19;20824;-66
2023/12/24 17:10:33;;;;;;;;;;;;;;;12.73;80.16;99559.28;7356486;19;19986;-65
2023/12/24 17:12:58;;;;;;;;;;;;;;;12.72;80.47;99556.72;7356101;19;19927;-66
2023/12/24 17:15:24;;;;;;;;;;;;;;;12.72;80.06;99567.22;7363864;19;19918;-66
2023/12/24 17:17:50;;;;;;;;;;;;;;;12.70;80.18;99559.44;7364492;19;20354;-65
2023/12/24 17:20:15;;;;;;;;;;;;;;;12.69;79.79;99567.38;7373501;19;19926;-66